Time;durP1;ratioP1;P1;durP2;ratioP2;P2;SDS_P1;SDS_P2;PMS_P1;PMS_P2;Temp;Humidity;BMP_temperature;BMP_pressure;BME280_temperature;BME280_humidity;BME280_pressure;Samples;Min_cycle;Max_cycle;Signal;HPM_P1;HPM_P2
2022/05/14 00:01:08;;;;;;;;;3.00;2.00;;;;;18.06;44.12;101522.03;6240273;22;45755;-76
2022/05/14 00:03:34;;;;;;;;;3.00;3.00;;;;;18.03;44.09;101528.44;6240488;22;46400;-76
2022/05/14 00:06:05;;;;;;;;;1.75;1.75;;;;;17.99;43.83;101516.44;6239916;22;47392;-76
2022/05/14 00:08:31;;;;;;;;;4.00;2.25;;;;;17.97;43.83;101507.78;6240921;22;45408;-76
2022/05/14 00:13:52;;;;;;;;;3.00;3.00;;;;;17.94;44.14;101510.69;6270930;22;45477;-76
2022/05/14 00:16:23;;;;;;;;;4.00;2.50;;;;;17.93;43.81;101515.16;6270991;22;46064;-76
2022/05/14 00:18:49;;;;;;;;;3.25;3.00;;;;;17.95;44.12;101520.34;6245061;22;45649;-76
2022/05/14 00:21:41;;;;;;;;;4.25;3.00;;;;;17.86;44.39;101505.25;6270771;22;45756;-75
2022/05/14 00:24:07;;;;;;;;;5.00;3.50;;;;;17.95;44.19;101520.34;6270580;22;46932;-77
2022/05/14 00:26:35;;;;;;;;;3.00;3.00;;;;;17.87;44.28;101507.75;6271762;22;45609;-76
2022/05/14 00:29:00;;;;;;;;;3.50;3.00;;;;;17.92;44.37;101512.66;6243258;22;45807;-76
2022/05/14 00:31:26;;;;;;;;;3.50;3.25;;;;;17.91;44.14;101519.78;6271231;22;45453;-76
2022/05/14 00:33:57;;;;;;;;;3.00;3.00;;;;;17.89;44.15;101508.47;6243803;22;46334;-75
2022/05/14 00:36:23;;;;;;;;;3.25;2.75;;;;;17.90;44.18;101512.78;6271645;22;46318;-75
2022/05/14 00:40:03;;;;;;;;;3.25;3.00;;;;;17.90;44.47;101509.28;6270465;22;45563;-75
2022/05/14 00:42:04;;;;;;;;;4.00;3.00;;;;;17.82;44.56;101491.41;6248352;22;47658;-76
2022/05/14 00:44:30;;;;;;;;;3.25;3.25;;;;;17.88;44.54;101503.28;6271054;22;45597;-76
2022/05/14 00:46:59;;;;;;;;;5.50;3.50;;;;;17.86;44.30;101503.44;6271186;22;46005;-77
2022/05/14 00:49:35;;;;;;;;;4.50;4.00;;;;;17.82;44.07;101502.00;6270744;22;45630;-75
2022/05/14 00:52:13;;;;;;;;;3.25;3.00;;;;;17.85;44.46;101506.22;6247644;22;45462;-76
2022/05/14 00:54:44;;;;;;;;;3.00;3.00;;;;;17.81;44.29;101496.84;6192047;22;45697;-75
2022/05/14 00:57:13;;;;;;;;;3.25;3.25;;;;;17.73;44.23;101486.06;6275219;22;46152;-74
2022/05/14 00:59:39;;;;;;;;;2.00;2.00;;;;;17.82;44.63;101494.03;6277829;22;45459;-73
2022/05/14 01:02:06;;;;;;;;;3.00;3.00;;;;;17.82;44.56;101498.50;6250677;22;45762;-75
2022/05/14 01:04:32;;;;;;;;;3.25;3.25;;;;;17.80;44.29;101492.53;6277950;22;46824;-76
2022/05/14 01:07:06;;;;;;;;;3.00;3.00;;;;;17.80;44.10;101488.06;6277994;22;46462;-76
2022/05/14 01:09:33;;;;;;;;;3.75;2.25;;;;;17.80;44.53;101490.72;6277108;22;45755;-75
2022/05/14 01:11:59;;;;;;;;;3.25;3.25;;;;;17.79;44.64;101496.13;6277050;22;45493;-75
2022/05/14 01:14:26;;;;;;;;;3.00;3.00;;;;;17.77;44.18;101490.97;6278656;22;46472;-75
2022/05/14 01:16:52;;;;;;;;;5.00;4.00;;;;;17.77;44.57;101490.13;6279986;22;45966;-74
2022/05/14 01:19:17;;;;;;;;;2.25;2.25;;;;;17.77;44.47;101492.78;6279636;22;45518;-75
2022/05/14 01:22:27;;;;;;;;;3.50;2.50;;;;;17.74;44.63;101488.59;6278114;22;45581;-75
2022/05/14 01:28:04;;;;;;;;;3.00;2.75;;;;;17.69;44.63;101495.25;6125772;23;45780;-76
2022/05/14 01:33:34;;;;;;;;;3.00;3.00;;;;;17.59;44.40;101479.28;6122396;23;45519;-75
2022/05/14 01:35:59;;;;;;;;;3.25;3.00;;;;;17.60;44.42;101475.69;6098304;23;46557;-76
2022/05/14 01:38:26;;;;;;;;;3.75;3.50;;;;;17.57;44.62;101474.13;6125109;23;47230;-76
2022/05/14 01:40:52;;;;;;;;;3.00;3.00;;;;;17.57;44.53;101471.47;6125406;23;45639;-76
2022/05/14 01:43:20;;;;;;;;;3.00;3.00;;;;;17.58;44.85;101478.44;6125998;23;45485;-76
2022/05/14 01:49:06;;;;;;;;;3.25;2.75;;;;;17.56;45.01;101475.09;6125778;23;45625;-74
2022/05/14 01:51:33;;;;;;;;;3.25;3.00;;;;;17.55;44.93;101478.69;6125760;23;45593;-75
2022/05/14 01:53:58;;;;;;;;;3.00;3.00;;;;;17.55;44.65;101475.19;6125647;23;45538;-76
2022/05/14 01:56:24;;;;;;;;;4.00;4.00;;;;;17.55;44.77;101475.19;6126253;23;46472;-75
2022/05/14 01:59:39;;;;;;;;;4.00;4.00;;;;;17.53;44.88;101470.06;6099207;23;47182;-76
2022/05/14 02:05:29;;;;;;;;;3.00;2.00;;;;;17.49;44.78;101462.50;6185193;22;45789;-74
2022/05/14 02:07:54;;;;;;;;;3.50;3.00;;;;;17.43;44.83;101457.75;6185392;23;45786;-75
2022/05/14 02:10:19;;;;;;;;;2.00;2.00;;;;;17.47;44.83;101473.25;6159313;23;47266;-74
2022/05/14 02:13:33;;;;;;;;;3.75;3.00;;;;;17.36;45.18;101460.06;6184851;23;45630;-76
2022/05/14 02:22:44;;;;;;;;;2.50;2.00;;;;;17.35;44.83;101468.13;6037391;23;45680;-75
2022/05/14 02:25:10;;;;;;;;;1.25;0.50;;;;;17.30;44.91;101462.41;6037971;23;45583;-75
2022/05/14 02:27:36;;;;;;;;;4.00;3.00;;;;;17.25;45.03;101465.44;6013950;23;45496;-75
2022/05/14 02:30:02;;;;;;;;;2.50;2.00;;;;;17.25;45.16;101460.16;6038103;23;45614;-75
2022/05/14 02:32:28;;;;;;;;;2.00;2.00;;;;;17.21;45.17;101464.03;6038202;23;46980;-76
2022/05/14 02:34:54;;;;;;;;;3.25;2.25;;;;;17.20;44.96;101467.66;6038320;23;45689;-76
2022/05/14 02:37:23;;;;;;;;;3.00;3.00;;;;;17.20;45.64;101463.19;6038818;23;45671;-77
2022/05/14 02:39:49;;;;;;;;;3.00;2.00;;;;;17.19;45.03;101463.31;6116382;23;46615;-75
2022/05/14 02:42:16;;;;;;;;;3.00;3.00;;;;;17.17;45.37;101463.44;6124351;23;47288;-76
2022/05/14 02:44:41;;;;;;;;;2.50;2.25;;;;;17.17;45.42;101465.25;6124475;23;45715;-75
2022/05/14 02:47:06;;;;;;;;;3.00;3.00;;;;;17.18;45.74;101472.22;6122773;23;45571;-76
2022/05/14 02:49:32;;;;;;;;;3.25;3.00;;;;;17.16;45.85;101468.88;6120935;23;45715;-77
2022/05/14 02:51:57;;;;;;;;;5.00;3.00;;;;;17.09;45.69;101460.63;6119595;23;45762;-74
2022/05/14 02:54:25;;;;;;;;;3.75;3.00;;;;;17.13;45.64;101471.78;6118124;23;45593;-75
2022/05/14 02:56:51;;;;;;;;;2.75;2.75;;;;;17.12;45.66;101473.59;6257836;22;45584;-75
2022/05/14 02:59:17;;;;;;;;;2.00;2.00;;;;;17.12;45.71;101465.63;6272270;22;45586;-76
2022/05/14 03:01:49;;;;;;;;;3.00;2.00;;;;;17.13;45.73;101474.44;6244632;22;46247;-75
2022/05/14 03:04:27;;;;;;;;;;;;;;;;;;;;;
2022/05/14 03:06:54;;;;;;;;;3.75;3.00;;;;;17.10;45.76;101474.69;6271764;22;69003;-75
2022/05/14 03:09:23;;;;;;;;;2.50;2.00;;;;;17.08;45.42;101466.88;6272253;22;46523;-75
2022/05/14 03:11:48;;;;;;;;;2.00;2.00;;;;;17.07;45.70;101469.66;6272172;22;46422;-74
2022/05/14 03:14:14;;;;;;;;;2.00;2.00;;;;;17.03;45.71;101461.13;6245101;22;45705;-75
2022/05/14 03:16:44;;;;;;;;;1.50;1.50;;;;;17.04;45.43;101469.91;6275339;22;45554;-75
2022/05/14 03:19:11;;;;;;;;;3.00;2.00;;;;;17.04;45.87;101459.31;6274763;22;46413;-75
2022/05/14 03:21:37;;;;;;;;;2.00;2.00;;;;;17.04;45.84;101461.97;6245625;22;45530;-76
2022/05/14 03:24:03;;;;;;;;;4.00;2.50;;;;;17.01;45.50;101459.56;6272095;22;45519;-74
2022/05/14 03:26:28;;;;;;;;;3.00;2.00;;;;;17.00;45.78;101466.69;6272422;22;45543;-74
2022/05/14 03:28:54;;;;;;;;;2.00;2.00;;;;;17.01;45.70;101464.88;6275136;22;45467;-75
2022/05/14 03:31:19;;;;;;;;;2.00;2.00;;;;;17.00;45.81;101463.22;6274175;22;46068;-76
2022/05/14 03:37:07;;;;;;;;;2.00;2.00;;;;;16.96;45.73;101459.97;6271971;22;45437;-76
2022/05/14 03:39:32;;;;;;;;;2.00;2.00;;;;;16.98;45.91;101463.34;6271229;22;46355;-75
2022/05/14 03:41:59;;;;;;;;;2.00;2.00;;;;;16.97;45.33;101461.66;6272559;22;45502;-74
2022/05/14 03:44:24;;;;;;;;;4.00;2.00;;;;;16.95;45.58;101460.94;6272246;22;45586;-74
2022/05/14 03:46:49;;;;;;;;;3.00;2.00;;;;;16.95;45.58;101463.56;6271675;22;45550;-74
2022/05/14 03:52:36;;;;;;;;;3.00;2.00;;;;;16.90;45.92;101462.28;6271318;22;45881;-76
2022/05/14 03:55:02;;;;;;;;;3.00;2.00;;;;;16.89;45.72;101465.91;6272073;22;45605;-76
2022/05/14 03:57:29;;;;;;;;;4.00;3.25;;;;;16.87;46.10;101465.19;6246859;22;45496;-76
2022/05/14 03:59:54;;;;;;;;;3.00;3.00;;;;;16.84;45.69;101465.47;6273043;22;46454;-75
2022/05/14 04:02:21;;;;;;;;;2.75;2.00;;;;;16.84;45.81;101468.97;6271876;22;45655;-75
2022/05/14 04:04:47;;;;;;;;;3.00;2.00;;;;;16.80;45.79;101456.91;6273900;22;45648;-77
2022/05/14 04:07:15;;;;;;;;;3.50;2.75;;;;;16.82;45.72;101467.38;6272540;22;45637;-77
2022/05/14 04:09:43;;;;;;;;;3.00;2.00;;;;;16.84;46.37;101462.81;6272781;22;46718;-75
2022/05/14 04:12:11;;;;;;;;;1.00;1.00;;;;;16.81;45.67;101455.13;6273319;22;45445;-76
2022/05/14 04:14:36;;;;;;;;;3.00;3.00;;;;;16.81;46.24;101455.13;6271306;22;45531;-74
2022/05/14 04:17:02;;;;;;;;;1.50;1.50;;;;;16.79;45.85;101453.44;6273824;22;45598;-75
2022/05/14 04:22:50;;;;;;;;;1.75;1.75;;;;;16.81;46.05;101465.72;6271783;22;45670;-76
2022/05/14 04:25:16;;;;;;;;;2.00;1.00;;;;;16.80;45.81;101470.16;6272877;22;45513;-75
2022/05/14 04:27:42;;;;;;;;;2.00;1.00;;;;;16.81;46.15;101463.91;6271310;22;45686;-76
2022/05/14 04:30:09;;;;;;;;;1.00;1.00;;;;;16.80;46.02;101467.50;6271415;22;46274;-76
2022/05/14 04:32:38;;;;;;;;;1.25;1.25;;;;;16.80;46.10;101462.22;6271782;22;46529;-76
2022/05/14 04:35:04;;;;;;;;;2.25;1.00;;;;;16.79;46.19;101466.66;6271621;22;45495;-76
2022/05/14 04:37:29;;;;;;;;;1.00;1.00;;;;;16.76;46.04;101464.28;6272011;22;45494;-77
2022/05/14 04:39:55;;;;;;;;;2.00;1.25;;;;;16.77;45.71;101473.91;6271445;22;46668;-76
2022/05/14 04:42:20;;;;;;;;;2.50;1.00;;;;;16.78;45.89;101472.94;6270910;22;45691;-74
2022/05/14 04:44:46;;;;;;;;;2.00;2.00;;;;;16.78;46.06;101486.19;6271755;22;45645;-75
2022/05/14 04:47:12;;;;;;;;;1.75;1.25;;;;;16.76;46.38;101477.53;6272187;22;45818;-76
2022/05/14 04:52:59;;;;;;;;;2.00;1.75;;;;;16.77;46.50;101478.38;6272346;22;45552;-76
2022/05/14 04:55:24;;;;;;;;;1.75;1.75;;;;;16.71;46.08;101474.41;6272880;22;45476;-75
2022/05/14 05:01:25;;;;;;;;;2.75;1.25;;;;;16.63;46.25;101457.47;6180336;23;45484;-76
2022/05/14 05:03:50;;;;;;;;;1.50;1.25;;;;;16.67;46.25;101467.72;6177656;23;46002;-74
2022/05/14 05:06:18;;;;;;;;;3.00;2.00;;;;;16.67;46.42;101472.16;6152655;23;45686;-76
2022/05/14 05:08:44;;;;;;;;;3.00;2.50;;;;;16.70;46.57;101477.19;6178193;23;45595;-77
2022/05/14 05:11:10;;;;;;;;;3.50;2.00;;;;;16.69;46.29;101476.34;6177569;23;46519;-76
2022/05/14 05:13:38;;;;;;;;;2.25;2.00;;;;;16.69;46.54;101473.69;6177425;23;47978;-75
2022/05/14 05:16:04;;;;;;;;;2.00;2.00;;;;;16.72;46.54;101465.53;6153580;23;45610;-77
2022/05/14 05:18:30;;;;;;;;;3.75;2.00;;;;;16.70;46.79;101472.75;6177959;23;45629;-74
2022/05/14 05:20:58;;;;;;;;;3.25;2.00;;;;;16.72;46.45;101480.56;6153059;23;46380;-76
2022/05/14 05:23:25;;;;;;;;;4.00;3.00;;;;;16.71;46.53;101485.00;6152149;23;47026;-76
2022/05/14 05:25:54;;;;;;;;;1.00;1.00;;;;;16.75;46.57;101483.78;6178078;23;45585;-76
2022/05/14 05:28:19;;;;;;;;;2.00;2.00;;;;;16.76;46.44;101488.09;6178472;23;45535;-76
2022/05/14 05:30:45;;;;;;;;;2.75;2.00;;;;;16.75;46.42;101480.28;6181341;22;46216;-77
2022/05/14 05:33:15;;;;;;;;;2.25;2.25;;;;;16.77;46.66;101481.84;6241239;22;45609;-76
2022/05/14 05:35:43;;;;;;;;;2.25;2.00;;;;;16.80;46.39;101475.44;6242206;22;45375;-75
2022/05/14 05:38:11;;;;;;;;;1.50;1.50;;;;;16.81;46.68;101476.28;6240632;22;45694;-76
2022/05/14 05:40:41;;;;;;;;;1.75;1.50;;;;;16.77;46.46;101471.28;6242187;22;45627;-74
2022/05/14 05:45:46;;;;;;;;;4.00;3.00;;;;;16.85;46.72;101485.66;6237953;22;46066;-75
2022/05/14 05:48:12;;;;;;;;;1.00;1.00;;;;;16.85;46.39;101483.00;6238904;22;45662;-76
2022/05/14 05:51:01;;;;;;;;;2.00;2.00;;;;;16.86;46.46;101487.34;6210315;22;47225;-76
2022/05/14 05:58:58;;;;;;;;;2.00;1.25;;;;;16.91;46.40;101493.94;6238770;22;45484;-77
2022/05/14 06:01:24;;;;;;;;;3.00;2.75;;;;;16.92;46.06;101492.97;6210983;22;48321;-74
2022/05/14 06:03:51;;;;;;;;;3.25;3.00;;;;;16.93;46.20;101491.16;6238024;22;47009;-76
2022/05/14 06:06:18;;;;;;;;;2.00;2.00;;;;;16.93;46.40;101504.41;6238506;22;46313;-76
2022/05/14 06:08:44;;;;;;;;;3.25;2.75;;;;;16.93;46.27;101499.94;6238087;22;45623;-74
2022/05/14 06:11:10;;;;;;;;;3.00;2.00;;;;;16.96;46.32;101504.13;6237971;22;45684;-76
2022/05/14 06:13:35;;;;;;;;;4.00;3.00;;;;;16.97;45.99;101504.00;6236927;22;45949;-74
2022/05/14 06:16:01;;;;;;;;;3.00;3.00;;;;;16.97;46.44;101503.16;6210336;22;45718;-75
2022/05/14 06:18:29;;;;;;;;;3.25;3.00;;;;;16.98;46.41;101500.41;6210722;22;45851;-75
2022/05/14 06:20:57;;;;;;;;;2.00;2.00;;;;;16.99;46.21;101503.88;6237426;22;45615;-75
2022/05/14 06:23:23;;;;;;;;;3.00;3.00;;;;;16.98;46.31;101507.50;6237224;22;45824;-76
2022/05/14 06:26:23;;;;;;;;;4.00;3.00;;;;;17.03;46.48;101511.44;6238759;22;45882;-77
2022/05/14 06:32:22;;;;;;;;;2.75;2.75;;;;;17.00;46.43;101510.88;6083243;23;46010;-76
2022/05/14 06:34:48;;;;;;;;;3.00;3.00;;;;;17.07;46.05;101517.31;6083862;23;45814;-76
2022/05/14 06:37:13;;;;;;;;;5.00;3.00;;;;;17.06;46.37;101520.91;6060218;23;46238;-77
2022/05/14 06:39:39;;;;;;;;;3.00;3.00;;;;;17.10;46.28;101515.25;6084752;23;45713;-77
2022/05/14 06:42:05;;;;;;;;;4.75;4.50;;;;;17.09;46.04;101510.94;6084423;23;45650;-77
2022/05/14 06:44:55;;;;;;;;;4.00;3.25;;;;;17.15;46.37;101504.28;6085256;23;46082;-78
2022/05/14 06:47:26;;;;;;;;;5.00;4.75;;;;;17.05;46.19;101498.94;6084479;23;45746;-77
2022/05/14 06:49:51;;;;;;;;;4.25;4.25;;;;;17.04;46.09;101486.66;6083811;23;45634;-74
2022/05/14 06:53:04;;;;;;;;;5.50;5.50;;;;;17.08;46.16;101492.50;6085357;23;46022;-77
2022/05/14 06:55:34;;;;;;;;;4.50;4.50;;;;;17.12;46.47;101494.78;6083906;23;46356;-76
2022/05/14 07:01:45;;;;;;;;;3.50;3.25;;;;;17.20;45.90;101494.13;5970599;23;45817;-76
2022/05/14 07:07:52;;;;;;;;;5.00;4.00;;;;;17.40;45.91;101516.28;6191375;22;46066;-79
2022/05/14 07:11:05;;;;;;;;;4.75;3.50;;;;;17.43;45.90;101524.81;6242881;22;45523;-77
2022/05/14 07:14:18;;;;;;;;;4.00;3.25;;;;;17.46;45.79;101519.25;6240734;22;45542;-75
2022/05/14 07:16:45;;;;;;;;;4.50;4.00;;;;;17.40;45.58;101506.50;6240081;22;45861;-78
2022/05/14 07:19:11;;;;;;;;;3.75;3.50;;;;;17.47;45.54;101512.13;6239533;22;46187;-80
2022/05/14 07:21:39;;;;;;;;;4.00;4.00;;;;;17.57;45.72;101515.69;6240133;22;45674;-79
2022/05/14 07:24:07;;;;;;;;;3.75;3.75;;;;;17.58;45.52;101504.94;6213085;22;45857;-79
2022/05/14 07:26:37;;;;;;;;;3.00;3.00;;;;;17.61;45.85;101509.16;6242559;22;46532;-78
2022/05/14 07:29:11;;;;;;;;;6.00;4.25;;;;;17.65;45.72;101502.66;6242001;22;46380;-79
2022/05/14 07:31:38;;;;;;;;;3.25;3.00;;;;;17.65;45.53;101502.66;6242239;22;45629;-79
2022/05/14 07:34:07;;;;;;;;;6.75;5.00;;;;;17.69;45.55;101498.75;6242549;22;45660;-79
2022/05/14 07:37:01;;;;;;;;;5.75;5.00;;;;;17.78;45.72;101508.56;6240416;22;45515;-76
2022/05/14 07:39:32;;;;;;;;;5.25;4.00;;;;;17.82;45.33;101504.66;6241005;22;45815;-78
2022/05/14 07:42:00;;;;;;;;;4.00;4.00;;;;;17.84;45.46;101507.19;6241112;22;45670;-78
2022/05/14 07:44:37;;;;;;;;;5.00;5.00;;;;;17.87;45.41;101498.94;6240588;22;45398;-78
2022/05/14 07:47:03;;;;;;;;;5.00;4.50;;;;;17.93;45.16;101498.41;6212492;22;46366;-78
2022/05/14 07:49:29;;;;;;;;;5.75;4.75;;;;;17.95;45.11;101501.78;6212931;22;47063;-79
2022/05/14 07:51:55;;;;;;;;;5.00;4.00;;;;;17.90;45.38;101488.94;6240571;22;45499;-79
2022/05/14 07:54:22;;;;;;;;;5.50;4.50;;;;;18.01;44.96;101495.94;6241032;22;45623;-80
2022/05/14 07:56:47;;;;;;;;;3.00;3.00;;;;;18.08;44.76;101498.91;6212988;22;46497;-77
2022/05/14 07:59:13;;;;;;;;;5.00;5.00;;;;;18.12;44.93;101495.00;6241553;22;45606;-80
2022/05/14 08:01:40;;;;;;;;;9.50;9.00;;;;;18.08;45.35;101489.13;6240837;22;45562;-80
2022/05/14 08:04:07;;;;;;;;;5.00;4.75;;;;;18.18;45.14;101492.63;6213246;22;45450;-78
2022/05/14 08:09:54;;;;;;;;;4.00;4.00;;;;;18.29;44.50;101495.19;6239786;22;46076;-79
2022/05/14 08:12:19;;;;;;;;;31.75;25.50;;;;;18.31;44.67;101487.91;6213055;22;45492;-76
2022/05/14 08:14:45;;;;;;;;;4.50;3.00;;;;;18.36;44.48;101490.13;6240622;22;45858;-79
2022/05/14 08:17:11;;;;;;;;;3.75;2.75;;;;;18.41;44.63;101494.06;6240308;22;46410;-79
2022/05/14 08:19:37;;;;;;;;;3.75;3.50;;;;;18.43;44.75;101488.63;6240752;22;45559;-78
2022/05/14 08:24:58;;;;;;;;;4.00;3.00;;;;;18.45;44.41;101481.38;6241707;22;45443;-79
2022/05/14 08:27:24;;;;;;;;;4.00;4.00;;;;;18.52;44.58;101487.78;6211533;22;45659;-77
2022/05/14 08:29:51;;;;;;;;;4.00;3.25;;;;;18.46;44.29;101478.56;6213581;22;48080;-79
2022/05/14 08:32:21;;;;;;;;;3.00;3.00;;;;;18.59;44.17;101488.09;6240875;22;45863;-79
2022/05/14 08:34:49;;;;;;;;;6.00;5.00;;;;;18.57;44.07;101479.47;6213472;22;45849;-78
2022/05/14 08:37:15;;;;;;;;;5.00;5.00;;;;;18.53;43.99;101467.38;6240571;22;45539;-77
2022/05/14 08:39:40;;;;;;;;;4.00;4.00;;;;;18.67;43.92;101480.28;6241508;22;45725;-80
2022/05/14 08:42:09;;;;;;;;;3.75;3.50;;;;;18.71;44.37;101481.69;6211905;22;45504;-77
2022/05/14 08:44:55;;;;;;;;;4.50;4.00;;;;;18.73;44.03;101485.03;6214114;22;45732;-76
2022/05/14 08:47:33;;;;;;;;;4.00;4.00;;;;;18.83;43.69;101481.41;6242028;22;45832;-76
2022/05/14 08:49:58;;;;;;;;;3.00;2.75;;;;;18.90;43.50;101476.34;6241017;22;46102;-76
2022/05/14 08:52:29;;;;;;;;;4.50;4.50;;;;;18.98;43.84;101480.97;6241218;22;45643;-77
2022/05/14 08:55:02;;;;;;;;;4.75;4.00;;;;;19.03;43.63;101476.06;6242571;22;45710;-75
2022/05/14 08:57:57;;;;;;;;;3.25;3.25;;;;;19.08;43.39;101476.47;6242121;22;45735;-76
2022/05/14 09:00:23;;;;;;;;;7.50;5.00;;;;;19.08;43.28;101469.34;6213659;22;48168;-76
2022/05/14 09:02:54;;;;;;;;;6.00;6.00;;;;;19.18;43.08;101478.13;6214162;22;45543;-77
2022/05/14 09:05:24;;;;;;;;;2.50;2.25;;;;;19.17;42.88;101463.16;6258091;22;45696;-76
2022/05/14 09:07:55;;;;;;;;;5.00;4.00;;;;;19.33;43.12;101475.00;6269368;22;46681;-76
2022/05/14 09:10:35;;;;;;;;;12.25;11.25;;;;;19.44;42.57;101483.66;6269311;22;45592;-75
2022/05/14 09:13:22;;;;;;;;;4.00;3.00;;;;;19.51;42.46;101484.78;6269753;22;45649;-75
2022/05/14 09:16:11;;;;;;;;;3.50;3.00;;;;;19.53;42.30;101468.69;6269759;22;45544;-75
2022/05/14 09:18:46;;;;;;;;;3.00;3.00;;;;;19.62;42.55;101473.13;6244539;22;47477;-75
2022/05/14 09:21:35;;;;;;;;;3.50;3.00;;;;;19.67;41.99;101471.69;6240477;22;47260;-76
2022/05/14 09:24:14;;;;;;;;;4.00;4.00;;;;;19.73;42.16;101475.59;6268073;22;45801;-76
2022/05/14 09:26:44;;;;;;;;;4.00;3.25;;;;;19.79;41.48;101467.03;6269071;22;45609;-77
2022/05/14 09:29:47;;;;;;;;;4.50;3.00;;;;;19.82;41.54;101461.41;6269825;22;45557;-74
2022/05/14 09:32:22;;;;;;;;;5.00;5.00;;;;;19.86;41.55;101468.13;6268898;22;45625;-77
2022/05/14 09:38:48;;;;;;;;;;;;;;;;;;;;;
2022/05/14 09:41:31;;;;;;;;;4.25;4.25;;;;;20.02;41.54;101462.16;6102199;23;76065;-78
2022/05/14 09:43:59;;;;;;;;;3.50;3.50;;;;;19.96;41.23;101438.81;6090981;23;46038;-77
2022/05/14 09:46:32;;;;;;;;;4.75;4.25;;;;;20.13;41.48;101458.44;6114075;23;45624;-78
2022/05/14 09:49:05;;;;;;;;;2.75;2.75;;;;;20.10;41.48;101441.78;6113707;23;45841;-80
2022/05/14 09:51:55;;;;;;;;;5.00;4.75;;;;;20.19;41.35;101440.03;6088715;23;46620;-78
2022/05/14 09:54:43;;;;;;;;;4.00;4.00;;;;;20.27;41.11;101441.94;6002482;23;46167;-78
2022/05/14 09:57:23;;;;;;;;;3.25;3.25;;;;;20.27;41.12;101436.63;6030140;23;45713;-79
2022/05/14 10:00:06;;;;;;;;;4.00;4.00;;;;;20.38;40.36;101439.94;6030279;23;45577;-79
2022/05/14 10:03:33;;;;;;;;;;;;;;;;;;;;;
2022/05/14 10:07:02;;;;;;;;;4.00;3.00;;;;;20.43;40.36;101423.50;5942612;23;76725;-79
2022/05/14 10:09:54;;;;;;;;;4.25;3.25;;;;;20.43;40.63;101419.03;5944853;23;45626;-79
2022/05/14 10:12:31;;;;;;;;;4.00;3.50;;;;;20.48;40.90;101430.03;5944746;23;45887;-79
2022/05/14 10:18:31;;;;;;;;;3.00;2.00;;;;;20.64;40.77;101428.50;6117172;23;45783;-78
2022/05/14 10:21:46;;;;;;;;;5.00;4.25;;;;;20.68;40.65;101422.72;6116724;23;46383;-79
2022/05/14 10:28:04;;;;;;;;;3.25;3.00;;;;;20.78;40.16;101419.97;6116961;23;45509;-77
2022/05/14 10:31:22;;;;;;;;;5.00;4.25;;;;;20.83;40.42;101423.00;6124173;23;45975;-79
2022/05/14 10:33:53;;;;;;;;;5.25;4.50;;;;;20.86;40.13;101418.19;5998436;23;45813;-79
2022/05/14 10:37:14;;;;;;;;;5.50;4.25;;;;;20.92;40.26;101416.75;6029134;23;45808;-78
2022/05/14 10:39:48;;;;;;;;;5.00;5.00;;;;;20.97;39.91;101419.78;6030535;23;45931;-78
2022/05/14 10:42:32;;;;;;;;;2.50;2.50;;;;;20.99;39.73;101417.81;6054716;23;46014;-79
2022/05/14 10:45:47;;;;;;;;;2.25;2.25;;;;;21.02;40.20;101411.31;6118864;23;45574;-77
2022/05/14 10:48:55;;;;;;;;;4.00;4.00;;;;;21.07;40.10;101412.50;6029795;23;45820;-78
2022/05/14 10:54:44;;;;;;;;;3.75;2.75;;;;;21.15;39.66;101399.28;6030315;23;45884;-79
2022/05/14 10:57:15;;;;;;;;;3.00;2.75;;;;;21.22;39.77;101410.13;6030901;23;45827;-78
2022/05/14 10:59:49;;;;;;;;;7.25;5.50;;;;;21.24;39.46;101400.13;6031039;23;45671;-78
2022/05/14 11:02:30;;;;;;;;;4.75;3.50;;;;;21.26;39.50;101399.00;6029527;23;45537;-79
2022/05/14 11:04:56;;;;;;;;;4.75;4.75;;;;;21.33;38.81;101408.00;6029045;23;46002;-79
2022/05/14 11:10:43;;;;;;;;;4.00;3.75;;;;;21.41;39.05;101401.06;6147063;22;45597;-77
2022/05/14 11:13:24;;;;;;;;;5.50;5.00;;;;;21.49;39.22;101401.09;6148014;23;45572;-80
2022/05/14 11:16:00;;;;;;;;;5.25;4.25;;;;;21.55;38.72;101397.78;6147112;23;45863;-81
2022/05/14 11:18:25;;;;;;;;;3.00;3.00;;;;;21.58;38.33;101400.97;6146760;23;45595;-79
2022/05/14 11:20:54;;;;;;;;;4.75;4.75;;;;;21.64;38.43;101399.50;6147098;23;45593;-77
2022/05/14 11:26:49;;;;;;;;;5.00;4.00;;;;;21.71;37.66;101379.16;6270082;22;45673;-77
2022/05/14 11:29:22;;;;;;;;;4.75;4.75;;;;;21.72;37.62;101376.34;6270879;22;45377;-76
2022/05/14 11:31:54;;;;;;;;;6.00;4.00;;;;;21.74;37.72;101377.03;6271035;22;45353;-78
2022/05/14 11:34:23;;;;;;;;;5.50;4.50;;;;;21.71;36.84;101372.00;6268886;22;47623;-79
2022/05/14 11:36:52;;;;;;;;;4.25;4.00;;;;;21.72;37.06;101373.66;6271224;22;46273;-78
2022/05/14 11:39:20;;;;;;;;;5.50;5.00;;;;;21.72;37.32;101384.34;6270013;22;45647;-78
2022/05/14 11:41:46;;;;;;;;;4.50;4.25;;;;;21.68;37.00;101375.00;6271174;22;45430;-77
2022/05/14 11:44:12;;;;;;;;;3.75;3.00;;;;;21.67;36.76;101365.31;6270913;22;45541;-77
2022/05/14 11:46:40;;;;;;;;;4.00;3.00;;;;;21.74;37.23;101373.53;6271319;22;45391;-78
2022/05/14 11:49:09;;;;;;;;;6.00;5.00;;;;;21.78;37.07;101372.19;6271269;22;45580;-78
2022/05/14 11:51:37;;;;;;;;;6.00;4.00;;;;;21.84;37.12;101368.03;6271793;22;45679;-75
2022/05/14 11:57:31;;;;;;;;;3.75;3.00;;;;;21.97;37.11;101361.25;6271351;22;45856;-77
2022/05/14 12:00:20;;;;;;;;;3.75;3.00;;;;;22.02;36.24;101363.44;6243279;22;45535;-77
2022/05/14 12:02:59;;;;;;;;;4.00;4.00;;;;;22.07;36.47;101359.28;6243145;22;45654;-78
2022/05/14 12:05:33;;;;;;;;;4.50;4.00;;;;;22.10;35.70;101360.75;6243063;22;48196;-76
2022/05/14 12:08:16;;;;;;;;;5.00;5.00;;;;;22.13;35.27;101357.78;6270984;22;45937;-77
2022/05/14 12:11:01;;;;;;;;;3.50;3.50;;;;;22.13;35.67;101352.44;6271642;22;45447;-77
2022/05/14 12:13:48;;;;;;;;;3.25;3.00;;;;;;;;6271706;22;45420;-76
2022/05/14 12:16:14;;;;;;;;;4.00;3.00;;;;;22.22;36.20;101348.78;6271220;22;45785;-76
2022/05/14 12:18:42;;;;;;;;;3.00;3.00;;;;;22.26;35.65;101338.59;6243313;22;46109;-77
2022/05/14 12:21:08;;;;;;;;;4.50;4.50;;;;;22.33;34.99;101344.94;6271491;22;45574;-77
2022/05/14 12:23:45;;;;;;;;;3.50;3.25;;;;;22.35;35.39;101346.41;6271448;22;45622;-75
2022/05/14 12:26:26;;;;;;;;;6.25;4.75;;;;;22.39;35.39;101341.59;6271271;22;45696;-77
2022/05/14 12:28:54;;;;;;;;;3.00;3.00;;;;;22.36;34.77;101337.41;6270932;22;45947;-74
2022/05/14 12:34:10;;;;;;;;;5.25;4.50;;;;;22.42;34.22;101328.72;6270383;22;45621;-76
2022/05/14 12:37:03;;;;;;;;;5.00;5.00;;;;;22.43;33.77;101325.06;6270556;22;46985;-77
2022/05/14 12:39:31;;;;;;;;;3.25;3.00;;;;;22.45;33.77;101325.75;6269600;22;45869;-77
2022/05/14 12:42:04;;;;;;;;;4.50;4.00;;;;;22.44;34.06;101312.53;6269595;22;45697;-77
2022/05/14 12:44:34;;;;;;;;;2.25;2.25;;;;;22.45;33.57;101316.88;6242794;22;45606;-77
2022/05/14 12:47:02;;;;;;;;;5.75;4.75;;;;;22.44;33.56;101310.72;6270271;22;45562;-76
2022/05/14 12:49:33;;;;;;;;;3.25;3.25;;;;;22.51;33.86;101319.69;6267346;22;47474;-75
2022/05/14 12:52:04;;;;;;;;;4.75;4.50;;;;;22.49;33.86;101305.69;6242020;22;45663;-76
2022/05/14 12:54:33;;;;;;;;;4.00;4.00;;;;;22.55;33.81;101314.88;6270239;22;45483;-75
2022/05/14 12:57:03;;;;;;;;;4.00;4.00;;;;;22.56;33.80;101303.19;6269908;22;45656;-77
2022/05/14 12:59:29;;;;;;;;;3.00;3.00;;;;;22.60;34.18;101305.34;6270254;22;45730;-76
2022/05/14 13:02:03;;;;;;;;;5.75;5.25;;;;;22.62;34.38;101302.47;6269833;22;45747;-76
2022/05/14 13:04:39;;;;;;;;;5.25;4.50;;;;;22.69;34.44;101292.78;6270147;22;45565;-77
2022/05/14 13:07:08;;;;;;;;;4.25;4.25;;;;;22.74;34.43;101298.47;6269956;22;45654;-75
2022/05/14 13:09:36;;;;;;;;;5.25;5.00;;;;;22.77;33.90;101289.31;6268998;22;45959;-77
2022/05/14 13:12:02;;;;;;;;;5.50;4.25;;;;;22.78;33.02;101285.63;6243294;22;45481;-76
2022/05/14 13:14:31;;;;;;;;;6.00;5.00;;;;;22.80;33.54;101278.25;6271568;22;45312;-77
2022/05/14 13:16:56;;;;;;;;;5.50;5.50;;;;;22.86;33.01;101281.09;6270925;22;45572;-77
2022/05/14 13:19:37;;;;;;;;;5.00;4.50;;;;;22.89;32.97;101279.88;6270577;22;45641;-77
2022/05/14 13:22:04;;;;;;;;;4.25;4.00;;;;;22.88;33.56;101271.06;6270447;22;45823;-79
2022/05/14 13:24:32;;;;;;;;;4.75;4.00;;;;;22.97;33.18;101282.53;6272121;22;45516;-80